createdAt,value
2018-05-14T00:00:38.031Z,77.03
2018-05-14T00:03:05.500Z,77.85
2018-05-14T00:05:32.979Z,75.53
2018-05-14T00:08:00.456Z,79.53
2018-05-14T00:10:28.698Z,81.95
2018-05-14T00:12:56.240Z,74.32
2018-05-14T00:15:23.707Z,79.60
2018-05-14T00:17:51.184Z,76.40
2018-05-14T00:20:18.650Z,79.78
2018-05-14T00:22:46.133Z,80.10
2018-05-14T00:25:13.593Z,78.97
2018-05-14T00:27:41.062Z,77.10
2018-05-14T00:30:08.522Z,79.80
2018-05-14T00:32:35.996Z,78.05
2018-05-14T00:35:03.474Z,73.93
2018-05-14T00:37:30.930Z,73.57
2018-05-14T00:39:58.721Z,76.85
2018-05-14T00:42:26.183Z,72.75
2018-05-14T00:44:53.670Z,73.47
2018-05-14T00:47:21.136Z,73.07
2018-05-14T00:49:48.604Z,68.82
2018-05-14T00:52:19.938Z,72.05
2018-05-14T00:54:59.257Z,73.18
2018-05-14T00:57:26.713Z,71.07
2018-05-14T00:59:54.189Z,68.37
2018-05-14T01:02:21.658Z,68.03
2018-05-14T01:04:49.112Z,72.40
2018-05-14T01:07:16.594Z,78.22
2018-05-14T01:09:44.076Z,75.50
2018-05-14T01:12:11.533Z,76.35
2018-05-14T01:14:39.014Z,78.53
2018-05-14T01:17:06.477Z,77.03
2018-05-14T01:19:33.932Z,71.05
2018-05-14T01:22:01.400Z,71.57
2018-05-14T01:24:28.856Z,75.18
2018-05-14T01:26:56.355Z,74.22
2018-05-14T01:29:23.828Z,73.75
2018-05-14T01:31:51.290Z,73.05
2018-05-14T01:34:18.780Z,73.28
2018-05-14T01:36:46.233Z,74.82
2018-05-14T01:39:13.714Z,72.12
2018-05-14T01:41:41.191Z,77.30
2018-05-14T01:44:09.440Z,69.43
2018-05-14T01:46:36.937Z,68.57
2018-05-14T01:49:04.410Z,68.07
2018-05-14T01:51:31.867Z,69.65
2018-05-14T01:53:59.350Z,69.85
2018-05-14T01:56:26.816Z,69.18
2018-05-14T01:58:54.277Z,69.62
2018-05-14T02:01:21.746Z,70.40
2018-05-14T02:03:49.199Z,69.25
2018-05-14T02:06:16.683Z,68.60
2018-05-14T02:08:44.133Z,68.13
2018-05-14T02:11:11.600Z,63.63
2018-05-14T02:13:39.064Z,61.20
2018-05-14T02:16:06.517Z,59.47
2018-05-14T02:18:33.998Z,60.83
2018-05-14T02:21:01.454Z,58.70
2018-05-14T02:23:28.972Z,58.70
2018-05-14T02:25:56.488Z,61.75
2018-05-14T02:28:23.939Z,60.20
2018-05-14T02:30:52.188Z,63.13
2018-05-14T02:33:19.664Z,65.53
2018-05-14T02:35:47.124Z,64.15
2018-05-14T02:38:14.605Z,63.25
2018-05-14T02:40:42.096Z,59.08
2018-05-14T02:43:10.316Z,58.27
2018-05-14T02:45:37.782Z,57.22
2018-05-14T02:48:05.256Z,56.97
2018-05-14T02:50:32.712Z,57.87
2018-05-14T02:53:00.179Z,58.08
2018-05-14T02:55:28.426Z,58.08
2018-05-14T02:57:55.902Z,58.00
2018-05-14T03:00:23.375Z,55.20
2018-05-14T03:02:50.817Z,55.75
2018-05-14T03:05:18.286Z,55.55
2018-05-14T03:07:45.760Z,56.95
2018-05-14T03:10:13.225Z,59.45
2018-05-14T03:12:41.456Z,61.65
2018-05-14T03:15:09.704Z,59.90
2018-05-14T03:17:37.164Z,58.63
2018-05-14T03:20:04.628Z,57.88
2018-05-14T03:22:32.094Z,58.05
2018-05-14T03:24:59.548Z,56.72
2018-05-14T03:27:27.030Z,56.15
2018-05-14T03:29:54.506Z,53.25
2018-05-14T03:32:21.978Z,55.47
2018-05-14T03:34:49.429Z,53.35
2018-05-14T03:37:16.951Z,55.00
2018-05-14T03:39:44.381Z,53.20
2018-05-14T03:42:11.847Z,54.97
2018-05-14T03:44:39.310Z,56.78
2018-05-14T03:47:06.799Z,55.35
2018-05-14T03:49:34.239Z,54.85
2018-05-14T03:52:01.720Z,52.97
2018-05-14T03:54:29.186Z,52.40
2018-05-14T03:56:56.673Z,52.62
2018-05-14T03:59:50.871Z,50.35
2018-05-14T04:02:30.280Z,52.78
2018-05-14T04:07:58.527Z,56.65
2018-05-14T04:10:25.997Z,52.93
2018-05-14T04:12:53.456Z,54.03
2018-05-14T04:15:21.699Z,55.05
2018-05-14T04:17:49.140Z,55.03
2018-05-14T04:20:16.607Z,53.25
2018-05-14T04:22:44.078Z,52.35
2018-05-14T04:25:11.546Z,51.55
2018-05-14T04:27:38.991Z,52.70
2018-05-14T04:30:07.350Z,51.15
2018-05-14T04:32:34.714Z,52.62
2018-05-14T04:35:02.178Z,50.53
2018-05-14T04:37:29.652Z,50.83
2018-05-14T04:39:57.118Z,49.83
2018-05-14T04:42:24.578Z,49.53
2018-05-14T04:44:52.028Z,50.78
2018-05-14T04:47:19.506Z,49.58
2018-05-14T04:49:46.956Z,49.63
2018-05-14T04:52:14.426Z,49.13
2018-05-14T04:54:41.891Z,48.35
2018-05-14T04:57:09.388Z,50.08
2018-05-14T04:59:36.863Z,49.20
2018-05-14T05:02:04.319Z,47.05
2018-05-14T05:04:31.777Z,48.55
2018-05-14T05:06:59.252Z,49.97
2018-05-14T05:09:26.706Z,48.55
2018-05-14T05:11:54.170Z,49.45
2018-05-14T05:14:21.642Z,50.00
2018-05-14T05:16:49.089Z,49.80
2018-05-14T05:19:16.560Z,49.40
2018-05-14T05:21:44.788Z,50.33
2018-05-14T05:24:12.242Z,52.10
2018-05-14T05:26:39.722Z,49.75
2018-05-14T05:29:07.186Z,50.12
2018-05-14T05:31:34.645Z,48.13
2018-05-14T05:34:02.106Z,50.25
2018-05-14T05:36:30.326Z,47.67
2018-05-14T05:38:57.775Z,48.40
2018-05-14T05:41:25.221Z,48.87
2018-05-14T05:43:53.449Z,47.75
2018-05-14T05:46:20.911Z,48.67
2018-05-14T05:48:48.380Z,48.30
2018-05-14T05:51:15.838Z,45.97
2018-05-14T05:53:43.313Z,45.08
2018-05-14T05:56:10.771Z,45.20
2018-05-14T05:58:38.238Z,45.47
2018-05-14T06:01:05.810Z,44.30
2018-05-14T06:03:33.277Z,45.42
2018-05-14T06:06:01.481Z,44.30
2018-05-14T06:08:28.937Z,47.13
2018-05-14T06:10:56.438Z,45.53
2018-05-14T06:13:23.899Z,43.97
2018-05-14T06:15:51.362Z,46.00
2018-05-14T06:18:18.818Z,44.35
2018-05-14T06:20:46.297Z,46.03
2018-05-14T06:23:13.731Z,46.45
2018-05-14T06:25:41.970Z,44.92
2018-05-14T06:28:09.435Z,44.28
2018-05-14T06:30:36.903Z,46.08
2018-05-14T06:33:04.383Z,45.75
2018-05-14T06:35:31.940Z,48.47
2018-05-14T06:37:59.315Z,45.42
2018-05-14T06:40:26.752Z,46.85
2018-05-14T06:42:55.117Z,48.65
2018-05-14T06:45:22.564Z,47.65
2018-05-14T06:47:50.016Z,51.37
2018-05-14T06:50:17.479Z,47.92
2018-05-14T06:52:44.954Z,51.50
2018-05-14T06:55:12.494Z,47.95
2018-05-14T06:57:39.903Z,47.80
2018-05-14T07:00:07.345Z,46.25
2018-05-14T07:02:34.786Z,46.58
2018-05-14T07:05:03.018Z,45.63
2018-05-14T07:07:30.469Z,43.70
2018-05-14T07:09:57.938Z,45.67
2018-05-14T07:12:25.406Z,45.12
2018-05-14T07:14:52.862Z,43.80
2018-05-14T07:17:21.107Z,43.13
2018-05-14T07:19:48.577Z,43.47
2018-05-14T07:22:16.020Z,44.75
2018-05-14T07:24:43.566Z,42.95
2018-05-14T07:27:10.932Z,43.57
2018-05-14T07:29:39.152Z,41.10
2018-05-14T07:32:06.617Z,38.60
2018-05-14T07:34:34.060Z,38.70
2018-05-14T07:37:02.290Z,37.20
2018-05-14T07:39:29.757Z,37.65
2018-05-14T07:41:57.232Z,37.47
2018-05-14T07:44:24.699Z,38.90
2018-05-14T07:46:52.144Z,37.30
2018-05-14T07:49:19.608Z,39.28
2018-05-14T07:51:47.064Z,36.88
2018-05-14T07:54:15.275Z,33.72
2018-05-14T07:56:42.732Z,31.73
2018-05-14T07:59:10.183Z,32.50
2018-05-14T08:01:38.422Z,32.20
2018-05-14T08:04:05.894Z,33.00
2018-05-14T08:06:33.345Z,30.08
2018-05-14T08:09:00.823Z,29.48
2018-05-14T08:11:28.274Z,29.92
2018-05-14T08:13:55.724Z,29.87
2018-05-14T08:16:23.936Z,30.02
2018-05-14T08:18:51.393Z,27.55
2018-05-14T08:21:18.861Z,29.35
2018-05-14T08:23:47.090Z,28.92
2018-05-14T08:26:14.547Z,28.00
2018-05-14T08:28:42.000Z,28.62
2018-05-14T08:31:09.462Z,28.05
2018-05-14T08:33:36.931Z,27.23
2018-05-14T08:36:04.379Z,27.60
2018-05-14T08:38:32.615Z,26.27
2018-05-14T08:41:00.075Z,26.15
2018-05-14T08:43:27.536Z,25.00
2018-05-14T08:45:55.010Z,25.40
2018-05-14T08:48:22.452Z,26.00
2018-05-14T08:50:50.810Z,24.67
2018-05-14T08:53:18.266Z,23.80
2018-05-14T08:55:45.730Z,24.05
2018-05-14T08:58:13.180Z,22.23
2018-05-14T09:00:40.698Z,20.70
2018-05-14T09:03:08.121Z,21.08
2018-05-14T09:05:35.582Z,20.20
2018-05-14T09:08:03.046Z,20.35
2018-05-14T09:10:30.519Z,19.75
2018-05-14T09:12:57.976Z,19.90
2018-05-14T09:15:26.200Z,19.90
2018-05-14T09:17:53.656Z,19.70
2018-05-14T09:20:21.109Z,19.60
2018-05-14T09:22:48.592Z,19.47
2018-05-14T09:25:16.064Z,19.00
2018-05-14T09:27:43.503Z,18.20
2018-05-14T09:30:11.724Z,17.92
2018-05-14T09:32:39.176Z,17.83
2018-05-14T09:35:06.644Z,16.83
2018-05-14T09:37:34.110Z,17.30
2018-05-14T09:40:01.583Z,16.95
2018-05-14T09:42:29.911Z,16.35
2018-05-14T09:44:57.423Z,16.65
2018-05-14T09:47:25.658Z,16.65
2018-05-14T09:49:53.116Z,15.73
2018-05-14T09:52:20.578Z,16.35
2018-05-14T09:54:48.035Z,15.27
2018-05-14T09:57:16.259Z,14.80
2018-05-14T09:59:43.724Z,14.17
2018-05-14T10:02:11.170Z,14.32
2018-05-14T10:04:38.626Z,14.50
2018-05-14T10:07:06.852Z,13.85
2018-05-14T10:09:34.307Z,14.50
2018-05-14T10:12:01.773Z,14.82
2018-05-14T10:14:29.365Z,14.10
2018-05-14T10:16:57.455Z,13.00
2018-05-14T10:19:24.941Z,13.25
2018-05-14T10:21:53.260Z,14.00
2018-05-14T10:24:21.519Z,12.70
2018-05-14T10:26:48.984Z,13.15
2018-05-14T10:29:16.428Z,14.27
2018-05-14T10:31:43.902Z,14.13
2018-05-14T10:34:11.362Z,13.40
2018-05-14T10:36:38.830Z,13.15
2018-05-14T10:39:06.296Z,12.13
2018-05-14T10:41:33.763Z,12.30
2018-05-14T10:44:01.212Z,11.57
2018-05-14T10:46:29.454Z,11.30
2018-05-14T10:48:56.981Z,11.75
2018-05-14T10:51:25.226Z,10.50
2018-05-14T10:53:52.663Z,10.43
2018-05-14T10:56:20.135Z,9.50
2018-05-14T10:58:47.595Z,9.77
2018-05-14T11:01:15.043Z,9.70
2018-05-14T11:03:42.483Z,8.50
2018-05-14T11:06:09.955Z,9.95
2018-05-14T11:08:37.417Z,9.60
2018-05-14T11:11:04.875Z,8.60
2018-05-14T11:13:32.328Z,8.20
2018-05-14T11:15:59.773Z,8.07
2018-05-14T11:18:27.231Z,7.50
2018-05-14T11:20:54.690Z,7.45
2018-05-14T11:23:22.897Z,8.38
2018-05-14T11:25:50.379Z,7.72
2018-05-14T11:28:17.821Z,7.90
2018-05-14T11:30:45.282Z,7.63
2018-05-14T11:33:13.488Z,7.15
2018-05-14T11:35:40.950Z,6.55
2018-05-14T11:38:08.403Z,6.70
2018-05-14T11:40:36.640Z,7.30
2018-05-14T11:43:05.033Z,6.60
2018-05-14T11:45:32.484Z,7.10
2018-05-14T11:47:59.950Z,6.40
2018-05-14T11:50:27.412Z,6.30
2018-05-14T11:52:54.878Z,7.35
2018-05-14T11:55:23.166Z,6.35
2018-05-14T11:57:51.392Z,6.32
2018-05-14T12:00:19.587Z,6.55
2018-05-14T12:02:47.128Z,6.05
2018-05-14T12:05:14.488Z,6.10
2018-05-14T12:07:41.945Z,5.85
2018-05-14T12:10:10.160Z,6.00
2018-05-14T12:12:37.593Z,5.95
2018-05-14T12:15:05.847Z,5.82
2018-05-14T12:17:33.289Z,5.72
2018-05-14T12:20:00.728Z,5.60
2018-05-14T12:22:28.171Z,5.80
2018-05-14T12:24:56.403Z,5.40
2018-05-14T12:27:23.857Z,6.28
2018-05-14T12:29:51.327Z,5.15
2018-05-14T12:32:18.806Z,5.85
2018-05-14T12:34:46.266Z,5.20
2018-05-14T12:37:13.752Z,5.35
2018-05-14T12:39:41.219Z,5.00
2018-05-14T12:42:08.716Z,5.00
2018-05-14T12:44:36.165Z,5.10
2018-05-14T12:47:03.632Z,4.90
2018-05-14T12:49:31.185Z,4.78
2018-05-14T12:51:58.627Z,4.57
2018-05-14T12:54:26.063Z,4.80
2018-05-14T12:56:53.538Z,5.22
2018-05-14T12:59:21.016Z,4.87
2018-05-14T13:01:48.471Z,5.10
2018-05-14T13:04:15.926Z,5.00
2018-05-14T13:06:43.404Z,4.80
2018-05-14T13:09:10.848Z,4.62
2018-05-14T13:11:38.308Z,4.85
2018-05-14T13:14:05.748Z,4.77
2018-05-14T13:16:33.196Z,4.50
2018-05-14T13:19:00.657Z,4.10
2018-05-14T13:21:28.116Z,4.03
2018-05-14T13:23:55.560Z,4.35
2018-05-14T13:26:23.012Z,4.10
2018-05-14T13:28:51.234Z,4.35
2018-05-14T13:31:18.711Z,4.05
2018-05-14T13:33:46.168Z,3.97
2018-05-14T13:36:13.647Z,3.80
2018-05-14T13:38:41.263Z,4.40
2018-05-14T13:41:08.720Z,4.00
2018-05-14T13:43:36.765Z,3.95
2018-05-14T13:46:04.215Z,4.05
2018-05-14T13:48:31.694Z,3.80
2018-05-14T13:50:59.158Z,3.80
2018-05-14T13:53:27.360Z,3.50
2018-05-14T13:55:54.821Z,3.50
2018-05-14T13:58:22.312Z,3.83
2018-05-14T14:00:49.755Z,3.80
2018-05-14T14:03:17.261Z,3.53
2018-05-14T14:05:44.730Z,3.50
2018-05-14T14:08:12.171Z,3.80
2018-05-14T14:10:39.636Z,3.90
2018-05-14T14:13:07.091Z,3.90
2018-05-14T14:15:35.333Z,3.60
2018-05-14T14:18:02.806Z,4.00
2018-05-14T14:20:30.260Z,4.15
2018-05-14T14:22:57.743Z,4.00
2018-05-14T14:25:25.215Z,3.80
2018-05-14T14:27:52.664Z,3.70
2018-05-14T14:30:20.214Z,4.10
2018-05-14T14:32:47.668Z,3.70
2018-05-14T14:35:15.926Z,3.40
2018-05-14T14:37:43.377Z,4.30
2018-05-14T14:40:10.866Z,3.80
2018-05-14T14:42:38.435Z,3.70
2018-05-14T14:45:05.902Z,3.83
2018-05-14T14:47:33.370Z,3.80
2018-05-14T14:50:00.841Z,3.85
2018-05-14T14:52:28.310Z,4.10
2018-05-14T14:54:55.764Z,3.60
2018-05-14T14:57:23.262Z,3.60
2018-05-14T14:59:52.211Z,3.75
2018-05-14T15:02:19.865Z,3.72
2018-05-14T15:04:48.145Z,4.00
2018-05-14T15:07:16.390Z,3.80
2018-05-14T15:09:43.832Z,3.60
2018-05-14T15:12:11.271Z,3.87
2018-05-14T15:14:38.736Z,3.58
2018-05-14T15:17:06.190Z,3.40
2018-05-14T15:19:33.653Z,3.50
2018-05-14T15:22:01.195Z,3.70
2018-05-14T15:24:28.651Z,3.70
2018-05-14T15:26:56.895Z,3.60
2018-05-14T15:29:24.366Z,3.60
2018-05-14T15:31:51.810Z,4.07
2018-05-14T15:34:19.358Z,3.90
2018-05-14T15:36:46.864Z,3.78
2018-05-14T15:39:14.331Z,3.62
2018-05-14T15:41:41.794Z,4.30
2018-05-14T15:44:09.284Z,3.55
2018-05-14T15:46:36.854Z,3.90
2018-05-14T15:49:04.326Z,3.60
2018-05-14T15:51:31.826Z,3.90
2018-05-14T15:53:59.383Z,3.92
2018-05-14T15:56:26.983Z,4.00
2018-05-14T15:58:54.416Z,4.10
2018-05-14T16:01:21.894Z,4.05
2018-05-14T16:03:49.459Z,3.70
2018-05-14T16:06:16.916Z,4.55
2018-05-14T16:08:44.422Z,3.70
2018-05-14T16:11:12.684Z,4.00
2018-05-14T16:13:40.140Z,3.83
2018-05-14T16:16:07.608Z,3.90
2018-05-14T16:18:35.084Z,3.80
2018-05-14T16:21:02.563Z,3.90
2018-05-14T16:23:30.024Z,4.20
2018-05-14T16:25:57.552Z,3.60
2018-05-14T16:28:25.786Z,3.80
2018-05-14T16:30:53.232Z,3.70
2018-05-14T16:33:20.882Z,4.17
2018-05-14T16:35:49.227Z,4.50
2018-05-14T16:38:17.004Z,4.68
2018-05-14T16:40:44.455Z,4.10
2018-05-14T16:43:11.934Z,4.37
2018-05-14T16:45:41.376Z,4.40
2018-05-14T16:48:08.926Z,4.10
2018-05-14T16:50:36.496Z,4.10
2018-05-14T16:53:03.943Z,4.20
2018-05-14T16:55:31.402Z,4.43
2018-05-14T16:57:58.879Z,4.47
2018-05-14T17:00:26.379Z,4.62
2018-05-14T17:02:53.834Z,4.50
2018-05-14T17:05:21.285Z,5.50
2018-05-14T17:07:48.806Z,4.70
2018-05-14T17:10:16.372Z,5.15
2018-05-14T17:12:43.936Z,5.10
2018-05-14T17:15:11.510Z,5.03
2018-05-14T17:17:39.072Z,5.00
2018-05-14T17:20:06.561Z,4.60
2018-05-14T17:22:34.003Z,5.40
2018-05-14T17:25:01.493Z,5.00
2018-05-14T17:27:28.998Z,5.13
2018-05-14T17:29:57.207Z,4.90
2018-05-14T17:32:24.674Z,4.83
2018-05-14T17:34:52.180Z,5.00
2018-05-14T17:37:19.759Z,6.90
2018-05-14T17:39:47.236Z,7.20
2018-05-14T17:42:14.803Z,5.68
2018-05-14T17:44:42.248Z,5.68
2018-05-14T17:47:09.695Z,5.50
2018-05-14T17:49:37.140Z,5.07
2018-05-14T17:52:05.400Z,5.60
2018-05-14T17:54:32.874Z,5.85
2018-05-14T17:57:00.435Z,5.47
2018-05-14T17:59:27.908Z,5.40
2018-05-14T18:01:55.358Z,5.47
2018-05-14T18:04:22.845Z,5.57
2018-05-14T18:06:50.306Z,5.12
2018-05-14T18:09:17.768Z,5.55
2018-05-14T18:11:45.251Z,5.20
2018-05-14T18:14:12.714Z,5.80
2018-05-14T18:16:40.178Z,5.82
2018-05-14T18:19:07.635Z,7.28
2018-05-14T18:21:38.007Z,8.57
2018-05-14T18:24:07.011Z,6.73
2018-05-14T18:26:40.247Z,7.53
2018-05-14T18:29:08.487Z,7.10
2018-05-14T18:31:50.815Z,7.70
2018-05-14T18:34:18.355Z,7.18
2018-05-14T18:36:45.846Z,6.60
2018-05-14T18:39:13.377Z,6.70
2018-05-14T18:41:40.803Z,6.65
2018-05-14T18:44:14.210Z,5.90
2018-05-14T18:46:41.695Z,5.70
2018-05-14T18:49:09.147Z,6.00
2018-05-14T18:51:36.617Z,6.30
2018-05-14T18:54:04.064Z,6.40
2018-05-14T18:56:31.540Z,8.57
2018-05-14T18:58:58.991Z,12.50
2018-05-14T19:01:26.458Z,10.20
2018-05-14T19:03:53.966Z,8.63
2018-05-14T19:06:21.529Z,7.68
2018-05-14T19:08:49.007Z,7.63
2018-05-14T19:11:22.131Z,6.47
2018-05-14T19:13:49.682Z,6.50
2018-05-14T19:16:22.807Z,6.45
2018-05-14T19:18:50.298Z,6.20
2018-05-14T19:21:18.524Z,8.02
2018-05-14T19:23:51.699Z,6.75
2018-05-14T19:26:19.064Z,7.00
2018-05-14T19:28:52.337Z,6.05
2018-05-14T19:31:19.790Z,6.20
2018-05-14T19:33:53.014Z,6.80
2018-05-14T19:36:20.574Z,6.50
2018-05-14T19:38:48.116Z,6.45
2018-05-14T19:41:15.599Z,6.10
2018-05-14T19:43:43.067Z,6.22
2018-05-14T19:46:10.538Z,5.90
2018-05-14T19:48:38.012Z,5.90
2018-05-14T19:51:05.456Z,6.20
2018-05-14T19:53:32.931Z,6.00
2018-05-14T19:56:00.390Z,6.03
2018-05-14T19:58:27.851Z,6.10
2018-05-14T20:00:55.322Z,6.20
2018-05-14T20:03:22.819Z,6.30
2018-05-14T20:05:50.300Z,6.07
2018-05-14T20:08:17.776Z,5.90
2018-05-14T20:10:45.239Z,5.90
2018-05-14T20:13:12.709Z,5.60
2018-05-14T20:15:42.117Z,5.68
2018-05-14T20:18:09.577Z,5.40
2018-05-14T20:20:37.062Z,5.70
2018-05-14T20:23:04.528Z,5.50
2018-05-14T20:25:31.991Z,5.10
2018-05-14T20:27:59.543Z,6.20
2018-05-14T20:30:26.946Z,5.43
2018-05-14T20:32:54.420Z,5.28
2018-05-14T20:35:21.876Z,5.40
2018-05-14T20:37:49.329Z,5.22
2018-05-14T20:40:16.882Z,5.20
2018-05-14T20:42:45.111Z,5.12
2018-05-14T20:45:12.581Z,5.07
2018-05-14T20:47:40.029Z,5.37
2018-05-14T20:50:07.480Z,5.20
2018-05-14T20:52:34.942Z,5.40
2018-05-14T20:55:02.404Z,4.95
2018-05-14T20:57:30.628Z,5.30
2018-05-14T20:59:58.088Z,5.30
2018-05-14T21:02:25.555Z,5.10
2018-05-14T21:04:53.012Z,5.43
2018-05-14T21:07:20.582Z,5.78
2018-05-14T21:09:48.055Z,4.80
2018-05-14T21:12:15.508Z,4.82
2018-05-14T21:14:43.789Z,4.90
2018-05-14T21:17:11.191Z,4.80
2018-05-14T21:19:38.647Z,5.00
2018-05-14T21:22:06.135Z,5.60
2018-05-14T21:24:33.601Z,5.22
2018-05-14T21:27:01.079Z,4.53
2018-05-14T21:30:35.296Z,5.00
2018-05-14T21:33:03.530Z,5.37
2018-05-14T21:35:30.968Z,4.80
2018-05-14T21:37:58.449Z,5.20
2018-05-14T21:40:25.907Z,4.93
2018-05-14T21:42:53.367Z,5.10
2018-05-14T21:45:20.850Z,4.70
2018-05-14T21:47:48.310Z,4.65
2018-05-14T21:50:15.857Z,5.10
2018-05-14T21:52:43.282Z,4.80
2018-05-14T21:55:10.759Z,5.03
2018-05-14T21:57:38.227Z,5.03
2018-05-14T22:00:05.688Z,5.10
2018-05-14T22:02:33.178Z,5.12
2018-05-14T22:05:00.635Z,5.40
2018-05-14T22:07:28.091Z,4.80
2018-05-14T22:09:55.575Z,5.20
2018-05-14T22:12:23.030Z,4.80
2018-05-14T22:14:50.485Z,4.97
2018-05-14T22:17:17.980Z,4.80
2018-05-14T22:19:45.445Z,4.60
2018-05-14T22:22:12.913Z,5.25
2018-05-14T22:24:40.379Z,5.10
2018-05-14T22:27:08.127Z,4.80
2018-05-14T22:29:36.439Z,5.03
2018-05-14T22:32:03.951Z,5.00
2018-05-14T22:34:31.398Z,5.35
2018-05-14T22:36:58.876Z,5.97
2018-05-14T22:39:26.493Z,5.25
2018-05-14T22:41:53.958Z,5.28
2018-05-14T22:44:21.412Z,5.60
2018-05-14T22:46:49.644Z,5.55
2018-05-14T22:49:17.110Z,5.18
2018-05-14T22:51:44.564Z,5.18
2018-05-14T22:54:12.058Z,5.43
2018-05-14T22:56:39.527Z,4.97
2018-05-14T22:59:06.988Z,4.90
2018-05-14T23:01:34.475Z,5.00
2018-05-14T23:04:01.943Z,5.30
2018-05-14T23:06:29.411Z,5.20
2018-05-14T23:08:56.880Z,5.50
2018-05-14T23:11:24.335Z,4.80
2018-05-14T23:13:51.802Z,5.30
2018-05-14T23:16:19.285Z,5.30
2018-05-14T23:18:46.763Z,5.62
2018-05-14T23:21:14.230Z,5.57
2018-05-14T23:23:41.704Z,5.00
2018-05-14T23:26:09.178Z,5.37
2018-05-14T23:28:36.638Z,5.40
2018-05-14T23:31:04.119Z,5.18
2018-05-14T23:33:31.696Z,5.30
2018-05-14T23:35:59.162Z,5.23
2018-05-14T23:38:26.649Z,5.50
2018-05-14T23:40:54.118Z,5.43
2018-05-14T23:43:21.586Z,5.60
2018-05-14T23:45:49.056Z,6.10
2018-05-14T23:48:16.512Z,5.80
2018-05-14T23:50:43.971Z,5.90
2018-05-14T23:53:11.445Z,6.03
2018-05-14T23:55:38.905Z,6.10
2018-05-14T23:58:07.144Z,5.63
